createdAt,value
2024-01-21T00:03:11.240Z,2.85
2024-01-21T00:06:53.291Z,2.45
2024-01-21T00:10:35.092Z,2.45
2024-01-21T00:14:16.889Z,2.63
2024-01-21T00:17:58.866Z,2.70
2024-01-21T00:21:40.835Z,2.47
2024-01-21T00:25:22.708Z,2.30
2024-01-21T00:29:04.793Z,2.40
2024-01-21T00:32:46.809Z,2.28
2024-01-21T00:36:28.789Z,1.40
2024-01-21T00:40:10.883Z,1.70
2024-01-21T00:43:52.693Z,3.30
2024-01-21T00:47:34.738Z,1.50
2024-01-21T00:51:16.837Z,2.10
2024-01-21T00:54:58.709Z,1.92
2024-01-21T00:58:40.730Z,2.10
2024-01-21T01:02:22.614Z,2.33
2024-01-21T01:06:04.924Z,2.28
2024-01-21T01:09:47.039Z,2.25
2024-01-21T01:13:29.079Z,2.08
2024-01-21T01:17:13.309Z,1.88
2024-01-21T01:20:56.236Z,3.03
2024-01-21T01:24:38.155Z,2.95
2024-01-21T01:28:22.826Z,2.78
2024-01-21T01:32:06.676Z,2.90
2024-01-21T01:35:48.486Z,3.20
2024-01-21T01:39:30.387Z,2.58
2024-01-21T01:43:12.401Z,2.50
2024-01-21T01:46:54.564Z,2.30
2024-01-21T01:50:36.469Z,2.90
2024-01-21T01:54:20.864Z,2.50
2024-01-21T01:58:03.355Z,2.40
2024-01-21T02:01:45.585Z,2.53
2024-01-21T02:05:27.472Z,2.67
2024-01-21T02:09:09.873Z,2.70
2024-01-21T02:12:54.995Z,2.42
2024-01-21T02:16:36.944Z,2.67
2024-01-21T02:20:18.799Z,2.00
2024-01-21T02:24:00.634Z,2.13
2024-01-21T02:27:42.543Z,3.03
2024-01-21T02:31:24.506Z,2.25
2024-01-21T02:35:06.578Z,2.85
2024-01-21T02:38:48.362Z,2.00
2024-01-21T02:42:30.345Z,1.90
2024-01-21T02:46:12.158Z,1.73
2024-01-21T02:49:54.128Z,0.98
2024-01-21T02:53:35.999Z,1.52
2024-01-21T02:57:17.892Z,1.52
2024-01-21T03:00:59.895Z,1.60
2024-01-21T03:04:41.902Z,1.10
2024-01-21T03:08:23.706Z,1.00
2024-01-21T03:12:05.787Z,1.40
2024-01-21T03:15:47.957Z,0.98
2024-01-21T03:19:29.766Z,1.17
2024-01-21T03:23:11.846Z,1.10
2024-01-21T03:26:54.056Z,1.00
2024-01-21T03:30:35.864Z,1.20
2024-01-21T03:34:17.934Z,1.75
2024-01-21T03:37:59.806Z,2.25
2024-01-21T03:41:41.752Z,1.63
2024-01-21T03:45:23.791Z,1.70
2024-01-21T03:49:05.730Z,1.35
2024-01-21T03:52:48.803Z,1.40
2024-01-21T03:56:31.654Z,1.50
2024-01-21T04:00:14.739Z,1.23
2024-01-21T04:03:56.707Z,1.35
2024-01-21T04:07:38.578Z,1.77
2024-01-21T04:11:20.386Z,1.42
2024-01-21T04:15:02.628Z,1.58
2024-01-21T04:18:44.607Z,1.40
2024-01-21T04:22:26.480Z,1.50
2024-01-21T04:26:08.546Z,1.98
2024-01-21T04:29:50.404Z,1.67
2024-01-21T04:33:32.446Z,2.38
2024-01-21T04:37:14.374Z,2.50
2024-01-21T04:40:56.495Z,1.98
2024-01-21T04:44:38.880Z,2.28
2024-01-21T04:48:20.860Z,1.90
2024-01-21T04:52:02.847Z,2.30
2024-01-21T04:55:44.715Z,2.03
2024-01-21T04:59:26.604Z,2.83
2024-01-21T05:03:08.474Z,3.30
2024-01-21T05:06:50.442Z,2.88
2024-01-21T05:10:32.366Z,2.10
2024-01-21T05:14:14.137Z,1.95
2024-01-21T05:17:57.965Z,2.28
2024-01-21T05:21:39.798Z,2.70
2024-01-21T05:25:21.596Z,1.95
2024-01-21T05:29:03.620Z,2.20
2024-01-21T05:32:47.549Z,2.13
2024-01-21T05:36:29.661Z,1.95
2024-01-21T05:40:11.687Z,2.10
2024-01-21T05:43:53.663Z,2.20
2024-01-21T05:47:35.623Z,1.95
2024-01-21T05:51:17.739Z,2.78
2024-01-21T05:54:59.804Z,2.05
2024-01-21T05:58:41.753Z,2.25
2024-01-21T06:02:23.682Z,2.45
2024-01-21T06:06:05.578Z,2.22
2024-01-21T06:09:47.585Z,2.10
2024-01-21T06:13:29.425Z,1.95
2024-01-21T06:17:11.291Z,3.40
2024-01-21T06:20:53.111Z,1.92
2024-01-21T06:24:38.544Z,2.30
2024-01-21T06:28:20.417Z,2.20
2024-01-21T06:32:02.297Z,2.03
2024-01-21T06:35:44.202Z,2.50
2024-01-21T06:39:26.063Z,3.67
2024-01-21T06:43:07.945Z,2.85
2024-01-21T06:46:49.852Z,1.88
2024-01-21T06:50:31.715Z,2.20
2024-01-21T06:54:14.820Z,2.33
2024-01-21T06:57:56.740Z,2.30
2024-01-21T07:01:38.718Z,2.10
2024-01-21T07:05:20.795Z,2.95
2024-01-21T07:09:02.741Z,2.50
2024-01-21T07:12:45.085Z,3.15
2024-01-21T07:16:27.219Z,2.60
2024-01-21T07:20:13.113Z,2.15
2024-01-21T07:23:55.099Z,2.25
2024-01-21T07:27:37.032Z,2.20
2024-01-21T07:31:18.865Z,2.42
2024-01-21T07:35:00.798Z,1.70
2024-01-21T07:38:42.895Z,2.13
2024-01-21T07:42:24.752Z,1.67
2024-01-21T07:46:06.644Z,3.00
2024-01-21T07:49:48.638Z,2.22
2024-01-21T07:53:30.639Z,3.15
2024-01-21T07:57:12.607Z,2.78
2024-01-21T08:00:54.712Z,2.85
2024-01-21T08:04:36.747Z,2.53
2024-01-21T08:08:19.101Z,2.78
2024-01-21T08:12:01.028Z,3.28
2024-01-21T08:15:42.955Z,2.45
2024-01-21T08:19:24.962Z,2.50
2024-01-21T08:23:06.916Z,2.85
2024-01-21T08:26:48.913Z,2.38
2024-01-21T08:30:30.782Z,2.97
2024-01-21T08:34:15.378Z,2.50
2024-01-21T08:37:57.476Z,3.10
2024-01-21T08:41:39.416Z,3.03
2024-01-21T08:45:21.385Z,4.65
2024-01-21T08:49:03.721Z,2.70
2024-01-21T08:52:45.746Z,3.63
2024-01-21T08:56:28.031Z,3.70
2024-01-21T09:00:12.715Z,3.75
2024-01-21T09:03:56.306Z,4.07
2024-01-21T09:07:38.195Z,3.28
2024-01-21T09:11:20.115Z,2.97
2024-01-21T09:15:02.642Z,3.55
2024-01-21T09:18:44.584Z,4.25
2024-01-21T09:22:26.981Z,3.53
2024-01-21T09:26:09.004Z,2.72
2024-01-21T09:29:50.847Z,3.35
2024-01-21T09:33:32.719Z,3.20
2024-01-21T09:37:14.618Z,3.47
2024-01-21T09:41:06.188Z,3.67
2024-01-21T09:44:48.094Z,4.35
2024-01-21T09:48:30.621Z,3.25
2024-01-21T09:52:13.617Z,3.67
2024-01-21T09:55:59.933Z,4.55
2024-01-21T09:59:42.003Z,3.55
2024-01-21T10:03:23.901Z,4.38
2024-01-21T10:07:05.996Z,5.05
2024-01-21T10:10:48.179Z,4.53
2024-01-21T10:14:30.148Z,6.63
2024-01-21T10:18:12.082Z,5.10
2024-01-21T10:22:12.928Z,4.68
2024-01-21T10:25:54.891Z,5.28
2024-01-21T10:29:47.676Z,4.65
2024-01-21T10:33:31.522Z,4.38
2024-01-21T10:37:16.896Z,4.30
2024-01-21T10:41:01.817Z,3.67
2024-01-21T10:44:45.615Z,4.40
2024-01-21T10:48:28.028Z,4.38
2024-01-21T10:52:10.587Z,4.75
2024-01-21T10:55:52.891Z,5.20
2024-01-21T10:59:37.438Z,4.35
2024-01-21T11:03:27.826Z,4.72
2024-01-21T11:07:14.741Z,4.47
2024-01-21T11:11:09.844Z,3.92
2024-01-21T11:14:51.672Z,4.00
2024-01-21T11:18:33.714Z,5.30
2024-01-21T11:22:17.319Z,3.92
2024-01-21T11:25:59.130Z,5.03
2024-01-21T11:29:42.470Z,5.15
2024-01-21T11:33:24.568Z,5.18
2024-01-21T11:37:11.607Z,6.35
2024-01-21T11:41:03.982Z,4.28
2024-01-21T11:44:45.974Z,5.10
2024-01-21T11:48:31.765Z,5.07
2024-01-21T11:52:16.053Z,6.32
2024-01-21T11:55:57.930Z,5.90
2024-01-21T11:59:39.957Z,3.85
2024-01-21T12:03:21.773Z,4.45
2024-01-21T12:07:04.353Z,5.57
2024-01-21T12:10:47.773Z,5.50
2024-01-21T12:14:29.882Z,5.15
2024-01-21T12:18:14.057Z,5.07
2024-01-21T12:21:56.116Z,5.43
2024-01-21T12:25:41.751Z,4.82
2024-01-21T12:29:23.833Z,5.03
2024-01-21T12:33:06.355Z,5.32
2024-01-21T12:36:50.820Z,6.05
2024-01-21T12:40:32.876Z,5.78
2024-01-21T12:44:14.736Z,5.53
2024-01-21T12:47:57.403Z,6.15
2024-01-21T12:51:39.811Z,10.88
2024-01-21T12:55:21.888Z,9.68
2024-01-21T12:59:04.067Z,7.38
2024-01-21T13:02:48.058Z,5.47
2024-01-21T13:06:31.369Z,6.53
2024-01-21T13:10:13.205Z,6.35
2024-01-21T13:13:55.071Z,6.93
2024-01-21T13:17:37.150Z,6.47
2024-01-21T13:21:19.059Z,5.50
2024-01-21T13:25:02.263Z,5.75
2024-01-21T13:29:02.658Z,6.70
2024-01-21T13:32:44.663Z,6.93
2024-01-21T13:36:27.264Z,7.05
2024-01-21T13:40:10.077Z,7.10
2024-01-21T13:43:52.074Z,5.03
2024-01-21T13:47:33.980Z,4.78
2024-01-21T13:51:16.189Z,5.97
2024-01-21T13:54:58.860Z,5.43
2024-01-21T13:58:43.431Z,5.47
2024-01-21T14:02:25.646Z,5.35
2024-01-21T14:06:08.651Z,6.18
2024-01-21T14:09:52.022Z,5.28
2024-01-21T14:13:34.031Z,6.00
2024-01-21T14:17:16.273Z,5.05
2024-01-21T14:20:58.206Z,4.28
2024-01-21T14:24:46.699Z,5.22
2024-01-21T14:28:29.734Z,5.45
2024-01-21T14:32:12.084Z,5.63
2024-01-21T14:35:54.031Z,6.55
2024-01-21T14:39:35.984Z,5.18
2024-01-21T14:43:18.179Z,5.78
2024-01-21T14:47:00.249Z,3.95
2024-01-21T14:50:42.045Z,4.70
2024-01-21T14:54:24.012Z,4.75
2024-01-21T14:58:06.136Z,5.53
2024-01-21T15:01:48.458Z,6.05
2024-01-21T15:05:30.496Z,5.10
2024-01-21T15:09:12.339Z,4.35
2024-01-21T15:12:54.214Z,5.72
2024-01-21T15:16:36.613Z,6.65
2024-01-21T15:20:18.572Z,4.97
2024-01-21T15:24:00.582Z,4.47
2024-01-21T15:27:42.893Z,5.15
2024-01-21T15:31:25.714Z,5.82
2024-01-21T15:35:07.956Z,4.53
2024-01-21T15:38:50.710Z,4.95
2024-01-21T15:42:33.168Z,4.13
2024-01-21T15:46:15.183Z,5.65
2024-01-21T15:49:57.172Z,4.50
2024-01-21T15:53:40.571Z,4.88
2024-01-21T15:57:22.407Z,4.28
2024-01-21T16:01:04.730Z,4.30
2024-01-21T16:04:46.675Z,5.50
2024-01-21T16:08:28.534Z,4.88
2024-01-21T16:12:10.482Z,4.18
2024-01-21T16:15:54.694Z,4.72
2024-01-21T16:19:37.119Z,3.45
2024-01-21T16:23:20.847Z,5.13
2024-01-21T16:27:05.790Z,5.20
2024-01-21T16:30:49.997Z,3.88
2024-01-21T16:34:37.813Z,3.65
2024-01-21T16:38:25.562Z,3.63
2024-01-21T16:42:08.139Z,3.75
2024-01-21T16:45:50.031Z,4.45
2024-01-21T16:49:31.989Z,2.80
2024-01-21T16:53:29.368Z,5.43
2024-01-21T16:57:11.671Z,4.60
2024-01-21T17:00:56.797Z,4.13
2024-01-21T17:04:39.268Z,5.00
2024-01-21T17:08:21.201Z,4.45
2024-01-21T17:12:05.113Z,5.53
2024-01-21T17:15:47.029Z,4.97
2024-01-21T17:19:29.751Z,6.18
2024-01-21T17:23:12.571Z,5.18
2024-01-21T17:26:56.417Z,4.70
2024-01-21T17:30:38.241Z,5.57
2024-01-21T17:34:21.254Z,4.82
2024-01-21T17:38:03.404Z,3.80
2024-01-21T17:41:45.257Z,5.47
2024-01-21T17:45:28.670Z,4.47
2024-01-21T17:49:10.740Z,3.70
2024-01-21T17:52:52.690Z,4.35
2024-01-21T17:56:34.573Z,4.57
2024-01-21T18:00:17.071Z,3.88
2024-01-21T18:03:59.142Z,5.05
2024-01-21T18:07:41.136Z,3.92
2024-01-21T18:11:23.439Z,3.70
2024-01-21T18:15:06.077Z,3.78
2024-01-21T18:18:52.076Z,4.60
2024-01-21T18:22:34.047Z,5.05
2024-01-21T18:26:29.708Z,5.28
2024-01-21T18:30:11.821Z,6.55
2024-01-21T18:33:53.800Z,4.30
2024-01-21T18:37:36.767Z,4.82
2024-01-21T18:41:18.721Z,5.00
2024-01-21T18:45:02.901Z,5.43
2024-01-21T18:48:45.262Z,6.00
2024-01-21T18:52:27.321Z,5.65
2024-01-21T18:56:09.422Z,4.72
2024-01-21T18:59:52.609Z,4.65
2024-01-21T19:03:34.608Z,3.90
2024-01-21T19:07:16.654Z,5.38
2024-01-21T19:11:14.162Z,5.22
2024-01-21T19:14:56.933Z,5.30
2024-01-21T19:18:44.271Z,5.03
2024-01-21T19:22:28.279Z,4.40
2024-01-21T19:26:14.274Z,6.32
2024-01-21T19:29:57.338Z,4.68
2024-01-21T19:33:39.599Z,6.28
2024-01-21T19:37:22.093Z,4.90
2024-01-21T19:41:05.437Z,4.68
2024-01-21T19:44:47.280Z,5.32
2024-01-21T19:48:29.301Z,5.15
2024-01-21T19:52:11.292Z,5.43
2024-01-21T19:55:53.447Z,5.10
2024-01-21T19:59:36.350Z,5.93
2024-01-21T20:03:18.425Z,4.38
2024-01-21T20:07:00.444Z,4.10
2024-01-21T20:10:42.348Z,4.15
2024-01-21T20:14:24.343Z,4.50
2024-01-21T20:18:06.783Z,6.00
2024-01-21T20:21:48.944Z,6.28
2024-01-21T20:25:31.079Z,4.60
2024-01-21T20:29:13.079Z,4.95
2024-01-21T20:32:55.236Z,6.22
2024-01-21T20:36:37.396Z,6.43
2024-01-21T20:40:19.545Z,4.80
2024-01-21T20:44:02.649Z,4.30
2024-01-21T20:47:44.769Z,4.85
2024-01-21T20:51:26.810Z,3.95
2024-01-21T20:55:09.376Z,3.42
2024-01-21T20:58:52.099Z,3.72
2024-01-21T21:02:34.086Z,3.40
2024-01-21T21:06:16.184Z,3.78
2024-01-21T21:09:58.445Z,3.00
2024-01-21T21:13:42.600Z,3.90
2024-01-21T21:17:25.019Z,3.65
2024-01-21T21:21:07.000Z,4.00
2024-01-21T21:24:48.944Z,3.88
2024-01-21T21:28:30.890Z,3.72
2024-01-21T21:32:14.865Z,3.45
2024-01-21T21:36:00.290Z,3.33
2024-01-21T21:39:42.307Z,2.33
2024-01-21T21:43:24.269Z,3.08
2024-01-21T21:47:06.413Z,2.60
2024-01-21T21:50:50.278Z,2.58
2024-01-21T21:54:40.954Z,3.10
2024-01-21T21:58:23.130Z,2.70
2024-01-21T22:02:07.607Z,2.10
2024-01-21T22:05:50.591Z,2.03
2024-01-21T22:09:32.561Z,2.08
2024-01-21T22:13:15.224Z,2.00
2024-01-21T22:16:57.337Z,1.15
2024-01-21T22:20:39.436Z,2.50
2024-01-21T22:24:21.674Z,1.13
2024-01-21T22:28:04.380Z,1.40
2024-01-21T22:31:46.506Z,1.20
2024-01-21T22:35:28.790Z,1.85
2024-01-21T22:39:10.717Z,1.67
2024-01-21T22:42:52.594Z,1.73
2024-01-21T22:46:34.538Z,1.42
2024-01-21T22:50:16.500Z,1.38
2024-01-21T22:53:58.399Z,1.83
2024-01-21T22:57:40.443Z,1.75
2024-01-21T23:01:22.376Z,1.60
2024-01-21T23:05:05.755Z,1.27
2024-01-21T23:08:47.916Z,1.70
2024-01-21T23:12:29.779Z,1.48
2024-01-21T23:16:11.725Z,1.40
2024-01-21T23:19:54.179Z,1.60
2024-01-21T23:23:36.280Z,1.77
2024-01-21T23:27:18.297Z,1.48
2024-01-21T23:31:01.640Z,1.50
2024-01-21T23:34:43.662Z,2.28
2024-01-21T23:38:25.668Z,1.40
2024-01-21T23:42:07.655Z,1.48
2024-01-21T23:45:49.576Z,1.23
2024-01-21T23:49:31.546Z,1.00
2024-01-21T23:53:13.574Z,1.27
2024-01-21T23:56:56.761Z,1.10
